sensor_id;sensor_type;location;lat;lon;timestamp;pressure;altitude;pressure_sealevel;temperature;humidity
9721;BME280;4899;42.644;23.366;2023-05-07T00:01:15;94476.56;;;10.36;100.00
9721;BME280;4899;42.644;23.366;2023-05-07T00:03:41;94480.66;;;10.29;100.00
9721;BME280;4899;42.644;23.366;2023-05-07T00:06:06;94485.50;;;10.30;100.00
9721;BME280;4899;42.644;23.366;2023-05-07T00:08:32;94483.97;;;10.29;100.00
9721;BME280;4899;42.644;23.366;2023-05-07T00:10:57;94483.34;;;10.24;100.00
9721;BME280;4899;42.644;23.366;2023-05-07T00:13:23;94489.84;;;10.21;100.00
9721;BME280;4899;42.644;23.366;2023-05-07T00:15:48;94491.19;;;10.18;100.00
9721;BME280;4899;42.644;23.366;2023-05-07T00:18:14;94490.13;;;10.20;100.00
9721;BME280;4899;42.644;23.366;2023-05-07T00:20:39;94490.13;;;10.20;100.00
9721;BME280;4899;42.644;23.366;2023-05-07T00:23:05;94479.19;;;10.14;100.00
9721;BME280;4899;42.644;23.366;2023-05-07T00:25:30;94487.56;;;10.20;100.00
9721;BME280;4899;42.644;23.366;2023-05-07T00:27:56;94481.38;;;10.21;100.00
9721;BME280;4899;42.644;23.366;2023-05-07T00:30:22;94480.91;;;10.18;100.00
9721;BME280;4899;42.644;23.366;2023-05-07T00:32:48;94490.63;;;10.22;100.00
9721;BME280;4899;42.644;23.366;2023-05-07T00:35:14;94454.19;;;9.97;100.00
9721;BME280;4899;42.644;23.366;2023-05-07T00:37:39;94477.88;;;10.16;100.00
9721;BME280;4899;42.644;23.366;2023-05-07T00:40:05;94478.44;;;10.13;100.00
9721;BME280;4899;42.644;23.366;2023-05-07T00:42:32;94475.25;;;10.08;100.00
9721;BME280;4899;42.644;23.366;2023-05-07T00:44:58;94484.78;;;10.16;100.00
9721;BME280;4899;42.644;23.366;2023-05-07T00:47:25;94479.63;;;10.07;100.00
9721;BME280;4899;42.644;23.366;2023-05-07T00:49:51;94491.75;;;10.15;100.00
9721;BME280;4899;42.644;23.366;2023-05-07T00:52:17;94490.22;;;10.14;100.00
9721;BME280;4899;42.644;23.366;2023-05-07T00:54:43;94490.72;;;10.16;100.00
9721;BME280;4899;42.644;23.366;2023-05-07T00:57:11;94486.75;;;10.10;100.00
9721;BME280;4899;42.644;23.366;2023-05-07T00:59:37;94479.78;;;10.11;100.00
9721;BME280;4899;42.644;23.366;2023-05-07T01:02:03;94487.03;;;10.09;100.00
9721;BME280;4899;42.644;23.366;2023-05-07T01:04:29;94483.09;;;10.03;100.00
9721;BME280;4899;42.644;23.366;2023-05-07T01:06:55;94492.78;;;10.06;100.00
9721;BME280;4899;42.644;23.366;2023-05-07T01:09:23;94410.63;;;9.52;100.00
9721;BME280;4899;42.644;23.366;2023-05-07T01:11:49;94474.91;;;10.01;100.00
9721;BME280;4899;42.644;23.366;2023-05-07T01:14:16;94486.72;;;10.02;100.00
9721;BME280;4899;42.644;23.366;2023-05-07T01:16:42;94490.81;;;10.03;100.00
9721;BME280;4899;42.644;23.366;2023-05-07T01:19:08;94484.13;;;9.93;100.00
9721;BME280;4899;42.644;23.366;2023-05-07T01:21:34;94481.53;;;9.93;100.00
9721;BME280;4899;42.644;23.366;2023-05-07T01:24:02;94478.63;;;9.86;100.00
9721;BME280;4899;42.644;23.366;2023-05-07T01:26:29;94476.81;;;9.86;100.00
9721;BME280;4899;42.644;23.366;2023-05-07T01:28:54;94475.59;;;9.84;100.00
9721;BME280;4899;42.644;23.366;2023-05-07T01:31:20;94473.47;;;9.86;100.00
9721;BME280;4899;42.644;23.366;2023-05-07T01:33:47;94481.53;;;9.93;100.00
9721;BME280;4899;42.644;23.366;2023-05-07T01:36:14;94475.34;;;9.94;100.00
9721;BME280;4899;42.644;23.366;2023-05-07T01:38:41;94477.78;;;9.99;100.00
9721;BME280;4899;42.644;23.366;2023-05-07T01:41:07;94474.31;;;10.04;100.00
9721;BME280;4899;42.644;23.366;2023-05-07T01:43:33;94447.59;;;10.13;100.00
9721;BME280;4899;42.644;23.366;2023-05-07T01:45:58;94466.59;;;10.35;100.00
9721;BME280;4899;42.644;23.366;2023-05-07T01:48:25;94466.66;;;10.52;100.00
9721;BME280;4899;42.644;23.366;2023-05-07T01:50:51;94461.22;;;10.62;100.00
9721;BME280;4899;42.644;23.366;2023-05-07T01:53:17;94454.72;;;10.73;100.00
9721;BME280;4899;42.644;23.366;2023-05-07T01:55:42;94459.13;;;10.82;100.00
9721;BME280;4899;42.644;23.366;2023-05-07T01:58:08;94441.41;;;10.71;100.00
9721;BME280;4899;42.644;23.366;2023-05-07T02:00:33;94456.09;;;10.88;100.00
9721;BME280;4899;42.644;23.366;2023-05-07T02:02:59;94454.28;;;10.80;100.00
9721;BME280;4899;42.644;23.366;2023-05-07T02:05:24;94455.94;;;10.85;100.00
9721;BME280;4899;42.644;23.366;2023-05-07T02:07:50;94448.53;;;10.83;100.00
9721;BME280;4899;42.644;23.366;2023-05-07T02:10:15;94444.44;;;10.73;100.00
9721;BME280;4899;42.644;23.366;2023-05-07T02:12:41;94439.16;;;10.70;100.00
9721;BME280;4899;42.644;23.366;2023-05-07T02:15:08;94430.94;;;10.59;100.00
9721;BME280;4899;42.644;23.366;2023-05-07T02:17:33;94436.69;;;10.65;100.00
9721;BME280;4899;42.644;23.366;2023-05-07T02:19:59;94418.22;;;10.54;100.00
9721;BME280;4899;42.644;23.366;2023-05-07T02:22:25;94432.91;;;10.62;100.00
9721;BME280;4899;42.644;23.366;2023-05-07T02:24:51;94425.94;;;10.54;100.00
9721;BME280;4899;42.644;23.366;2023-05-07T02:27:16;94434.41;;;10.46;100.00
9721;BME280;4899;42.644;23.366;2023-05-07T02:29:42;94428.19;;;10.38;100.00
9721;BME280;4899;42.644;23.366;2023-05-07T02:32:07;94428.03;;;10.35;100.00
9721;BME280;4899;42.644;23.366;2023-05-07T02:34:32;94431.50;;;10.30;100.00
9721;BME280;4899;42.644;23.366;2023-05-07T02:36:58;94432.72;;;10.33;100.00
9721;BME280;4899;42.644;23.366;2023-05-07T02:39:23;94431.78;;;10.29;100.00
9721;BME280;4899;42.644;23.366;2023-05-07T02:41:49;94428.00;;;10.26;100.00
9721;BME280;4899;42.644;23.366;2023-05-07T02:44:14;94438.59;;;10.25;100.00
9721;BME280;4899;42.644;23.366;2023-05-07T02:46:40;94423.09;;;10.16;100.00
9721;BME280;4899;42.644;23.366;2023-05-07T02:49:05;94417.69;;;10.17;100.00
9721;BME280;4899;42.644;23.366;2023-05-07T02:51:31;94433.47;;;10.25;100.00
9721;BME280;4899;42.644;23.366;2023-05-07T02:53:56;94432.41;;;10.26;100.00
9721;BME280;4899;42.644;23.366;2023-05-07T02:56:22;94423.53;;;10.09;100.00
9721;BME280;4899;42.644;23.366;2023-05-07T02:58:47;94442.81;;;10.21;100.00
9721;BME280;4899;42.644;23.366;2023-05-07T03:01:13;94432.00;;;10.10;100.00
9721;BME280;4899;42.644;23.366;2023-05-07T03:03:39;94442.44;;;10.13;100.00
9721;BME280;4899;42.644;23.366;2023-05-07T03:06:06;94431.41;;;10.04;100.00
9721;BME280;4899;42.644;23.366;2023-05-07T03:08:32;94446.69;;;10.09;100.00
9721;BME280;4899;42.644;23.366;2023-05-07T03:10:57;94446.50;;;10.06;100.00
9721;BME280;4899;42.644;23.366;2023-05-07T03:13:42;94448.47;;;10.00;100.00
9721;BME280;4899;42.644;23.366;2023-05-07T03:16:07;94449.81;;;9.98;100.00
9721;BME280;4899;42.644;23.366;2023-05-07T03:18:32;94450.13;;;9.96;100.00
9721;BME280;4899;42.644;23.366;2023-05-07T03:20:58;94463.88;;;10.00;100.00
9721;BME280;4899;42.644;23.366;2023-05-07T03:23:23;94461.31;;;10.00;100.00
9721;BME280;4899;42.644;23.366;2023-05-07T03:25:48;94469.78;;;10.01;100.00
9721;BME280;4899;42.644;23.366;2023-05-07T03:28:14;94469.03;;;10.00;100.00
9721;BME280;4899;42.644;23.366;2023-05-07T03:30:40;94462.69;;;10.06;100.00
9721;BME280;4899;42.644;23.366;2023-05-07T03:33:05;94465.56;;;10.05;100.00
9721;BME280;4899;42.644;23.366;2023-05-07T03:35:30;94459.06;;;10.07;100.00
9721;BME280;4899;42.644;23.366;2023-05-07T03:37:56;94463.78;;;10.14;100.00
9721;BME280;4899;42.644;23.366;2023-05-07T03:40:21;94465.72;;;10.08;100.00
9721;BME280;4899;42.644;23.366;2023-05-07T03:42:47;94461.78;;;10.02;100.00
9721;BME280;4899;42.644;23.366;2023-05-07T03:45:12;94471.75;;;10.04;100.00
9721;BME280;4899;42.644;23.366;2023-05-07T03:47:37;94469.63;;;9.97;100.00
9721;BME280;4899;42.644;23.366;2023-05-07T03:50:03;94483.53;;;9.96;100.00
9721;BME280;4899;42.644;23.366;2023-05-07T03:52:29;94485.78;;;9.98;100.00
9721;BME280;4899;42.644;23.366;2023-05-07T03:54:54;94469.47;;;9.94;100.00
9721;BME280;4899;42.644;23.366;2023-05-07T03:57:20;94482.94;;;9.99;100.00
9721;BME280;4899;42.644;23.366;2023-05-07T03:59:45;94478.72;;;10.03;100.00
9721;BME280;4899;42.644;23.366;2023-05-07T04:02:11;94487.47;;;10.02;100.00
9721;BME280;4899;42.644;23.366;2023-05-07T04:04:36;94498.22;;;10.04;100.00
9721;BME280;4899;42.644;23.366;2023-05-07T04:07:01;94498.06;;;10.09;100.00
9721;BME280;4899;42.644;23.366;2023-05-07T04:09:28;94490.81;;;10.03;100.00
9721;BME280;4899;42.644;23.366;2023-05-07T04:11:53;94500.81;;;10.13;100.00
9721;BME280;4899;42.644;23.366;2023-05-07T04:14:18;94505.72;;;10.23;100.00
9721;BME280;4899;42.644;23.366;2023-05-07T04:16:44;94511.63;;;10.24;100.00
9721;BME280;4899;42.644;23.366;2023-05-07T04:19:09;94489.91;;;10.07;100.00
9721;BME280;4899;42.644;23.366;2023-05-07T04:21:35;94508.75;;;10.25;100.00
9721;BME280;4899;42.644;23.366;2023-05-07T04:24:02;94517.25;;;10.26;100.00
9721;BME280;4899;42.644;23.366;2023-05-07T04:26:28;94528.00;;;10.36;100.00
9721;BME280;4899;42.644;23.366;2023-05-07T04:28:54;94526.78;;;10.34;100.00
9721;BME280;4899;42.644;23.366;2023-05-07T04:31:20;94538.03;;;10.46;100.00
9721;BME280;4899;42.644;23.366;2023-05-07T04:33:46;94545.63;;;10.52;100.00
9721;BME280;4899;42.644;23.366;2023-05-07T04:36:11;94497.59;;;10.30;100.00
9721;BME280;4899;42.644;23.366;2023-05-07T04:38:37;94522.78;;;10.50;100.00
9721;BME280;4899;42.644;23.366;2023-05-07T04:41:05;94544.16;;;10.68;100.00
9721;BME280;4899;42.644;23.366;2023-05-07T04:43:31;94538.25;;;10.67;100.00
9721;BME280;4899;42.644;23.366;2023-05-07T04:45:56;94545.38;;;10.79;100.00
9721;BME280;4899;42.644;23.366;2023-05-07T04:48:21;94551.31;;;10.88;100.00
9721;BME280;4899;42.644;23.366;2023-05-07T04:50:48;94541.66;;;10.94;100.00
9721;BME280;4899;42.644;23.366;2023-05-07T04:53:13;94552.25;;;11.01;100.00
9721;BME280;4899;42.644;23.366;2023-05-07T04:55:38;94535.28;;;11.00;100.00
9721;BME280;4899;42.644;23.366;2023-05-07T04:58:04;94528.94;;;11.06;100.00
9721;BME280;4899;42.644;23.366;2023-05-07T05:00:30;94544.72;;;11.22;100.00
9721;BME280;4899;42.644;23.366;2023-05-07T05:02:55;94547.56;;;11.37;100.00
9721;BME280;4899;42.644;23.366;2023-05-07T05:05:21;94544.88;;;11.43;100.00
9721;BME280;4899;42.644;23.366;2023-05-07T05:07:46;94556.22;;;11.59;100.00
9721;BME280;4899;42.644;23.366;2023-05-07T05:10:11;94553.34;;;11.69;100.00
9721;BME280;4899;42.644;23.366;2023-05-07T05:12:37;94536.22;;;11.73;100.00
9721;BME280;4899;42.644;23.366;2023-05-07T05:15:03;94543.03;;;11.86;100.00
9721;BME280;4899;42.644;23.366;2023-05-07T05:17:29;94535.00;;;11.96;100.00
9721;BME280;4899;42.644;23.366;2023-05-07T05:19:54;94530.28;;;11.98;100.00
9721;BME280;4899;42.644;23.366;2023-05-07T05:22:20;94542.22;;;12.12;100.00
9721;BME280;4899;42.644;23.366;2023-05-07T05:24:45;94540.84;;;12.23;100.00
9721;BME280;4899;42.644;23.366;2023-05-07T05:27:11;94535.06;;;12.26;100.00
9721;BME280;4899;42.644;23.366;2023-05-07T05:29:36;94545.47;;;12.38;100.00
9721;BME280;4899;42.644;23.366;2023-05-07T05:32:02;94549.50;;;12.56;100.00
9721;BME280;4899;42.644;23.366;2023-05-07T05:34:27;94542.34;;;12.62;100.00
9721;BME280;4899;42.644;23.366;2023-05-07T05:36:52;94540.94;;;12.73;100.00
9721;BME280;4899;42.644;23.366;2023-05-07T05:39:18;94547.38;;;12.88;100.00
9721;BME280;4899;42.644;23.366;2023-05-07T05:41:43;94555.06;;;12.97;100.00
9721;BME280;4899;42.644;23.366;2023-05-07T05:44:09;94555.47;;;13.07;100.00
9721;BME280;4899;42.644;23.366;2023-05-07T05:46:34;94538.44;;;13.06;100.00
9721;BME280;4899;42.644;23.366;2023-05-07T05:49:00;94549.78;;;13.22;100.00
9721;BME280;4899;42.644;23.366;2023-05-07T05:51:26;94548.94;;;13.31;100.00
9721;BME280;4899;42.644;23.366;2023-05-07T05:53:51;94549.66;;;13.40;100.00
9721;BME280;4899;42.644;23.366;2023-05-07T05:56:17;94536.97;;;13.47;100.00
9721;BME280;4899;42.644;23.366;2023-05-07T05:58:42;94552.72;;;13.54;100.00
9721;BME280;4899;42.644;23.366;2023-05-07T06:01:08;94552.09;;;13.57;100.00
9721;BME280;4899;42.644;23.366;2023-05-07T06:03:33;94547.78;;;13.61;100.00
9721;BME280;4899;42.644;23.366;2023-05-07T06:05:59;94549.44;;;13.66;100.00
9721;BME280;4899;42.644;23.366;2023-05-07T06:08:29;94557.56;;;13.76;100.00
9721;BME280;4899;42.644;23.366;2023-05-07T06:10:54;94555.22;;;13.83;100.00
9721;BME280;4899;42.644;23.366;2023-05-07T06:13:20;94549.66;;;13.94;100.00
9721;BME280;4899;42.644;23.366;2023-05-07T06:15:45;94564.88;;;14.07;100.00
9721;BME280;4899;42.644;23.366;2023-05-07T06:18:11;94556.28;;;14.15;100.00
9721;BME280;4899;42.644;23.366;2023-05-07T06:20:36;94555.66;;;14.31;100.00
9721;BME280;4899;42.644;23.366;2023-05-07T06:23:02;94551.28;;;14.43;100.00
9721;BME280;4899;42.644;23.366;2023-05-07T06:25:27;94539.63;;;14.50;100.00
9721;BME280;4899;42.644;23.366;2023-05-07T06:27:52;94545.81;;;14.69;100.00
9721;BME280;4899;42.644;23.366;2023-05-07T06:30:18;94536.63;;;14.72;100.00
9721;BME280;4899;42.644;23.366;2023-05-07T06:32:43;94546.13;;;14.80;100.00
9721;BME280;4899;42.644;23.366;2023-05-07T06:35:09;94538.88;;;14.86;100.00
9721;BME280;4899;42.644;23.366;2023-05-07T06:37:34;94537.38;;;14.97;100.00
9721;BME280;4899;42.644;23.366;2023-05-07T06:40:00;94536.56;;;15.08;100.00
9721;BME280;4899;42.644;23.366;2023-05-07T06:42:25;94532.03;;;15.18;100.00
9721;BME280;4899;42.644;23.366;2023-05-07T06:44:51;94528.38;;;15.19;100.00
9721;BME280;4899;42.644;23.366;2023-05-07T06:47:17;94519.69;;;15.27;100.00
9721;BME280;4899;42.644;23.366;2023-05-07T06:49:42;94527.56;;;15.43;100.00
9721;BME280;4899;42.644;23.366;2023-05-07T06:52:08;94513.59;;;15.47;100.00
9721;BME280;4899;42.644;23.366;2023-05-07T06:54:34;94532.34;;;15.56;100.00
9721;BME280;4899;42.644;23.366;2023-05-07T06:57:00;94522.22;;;15.63;100.00
9721;BME280;4899;42.644;23.366;2023-05-07T06:59:25;94524.31;;;15.74;100.00
9721;BME280;4899;42.644;23.366;2023-05-07T07:01:51;94517.88;;;15.67;100.00
9721;BME280;4899;42.644;23.366;2023-05-07T07:04:16;94529.25;;;15.79;100.00
9721;BME280;4899;42.644;23.366;2023-05-07T07:06:42;94520.16;;;15.85;100.00
9721;BME280;4899;42.644;23.366;2023-05-07T07:09:07;94518.34;;;16.01;100.00
9721;BME280;4899;42.644;23.366;2023-05-07T07:11:32;94527.66;;;16.18;100.00
9721;BME280;4899;42.644;23.366;2023-05-07T07:13:58;94527.16;;;16.28;100.00
9721;BME280;4899;42.644;23.366;2023-05-07T07:16:24;94528.00;;;16.32;100.00
9721;BME280;4899;42.644;23.366;2023-05-07T07:18:50;94525.66;;;16.43;100.00
9721;BME280;4899;42.644;23.366;2023-05-07T07:21:15;94520.63;;;16.50;100.00
9721;BME280;4899;42.644;23.366;2023-05-07T07:23:41;94519.44;;;16.63;100.00
9721;BME280;4899;42.644;23.366;2023-05-07T07:26:06;94522.22;;;16.86;100.00
9721;BME280;4899;42.644;23.366;2023-05-07T07:28:32;94516.28;;;16.85;100.00
9721;BME280;4899;42.644;23.366;2023-05-07T07:30:57;94519.34;;;16.91;100.00
9721;BME280;4899;42.644;23.366;2023-05-07T07:33:23;94516.22;;;17.01;100.00
9721;BME280;4899;42.644;23.366;2023-05-07T07:35:48;94516.53;;;17.15;100.00
9721;BME280;4899;42.644;23.366;2023-05-07T07:38:13;94526.44;;;17.29;100.00
9721;BME280;4899;42.644;23.366;2023-05-07T07:40:39;94507.31;;;17.37;100.00
9721;BME280;4899;42.644;23.366;2023-05-07T07:43:04;94528.50;;;17.59;100.00
9721;BME280;4899;42.644;23.366;2023-05-07T07:45:31;94526.81;;;17.66;98.99
9721;BME280;4899;42.644;23.366;2023-05-07T07:47:56;94527.03;;;17.77;95.93
9721;BME280;4899;42.644;23.366;2023-05-07T07:50:22;94531.59;;;17.83;94.81
9721;BME280;4899;42.644;23.366;2023-05-07T07:52:48;94530.97;;;17.90;93.93
9721;BME280;4899;42.644;23.366;2023-05-07T07:55:13;94530.53;;;18.07;92.40
9721;BME280;4899;42.644;23.366;2023-05-07T07:57:43;94533.97;;;18.11;92.88
9721;BME280;4899;42.644;23.366;2023-05-07T08:00:09;94538.53;;;18.41;93.03
9721;BME280;4899;42.644;23.366;2023-05-07T08:02:34;94531.28;;;18.54;89.37
9721;BME280;4899;42.644;23.366;2023-05-07T08:05:00;94529.69;;;18.68;87.36
9721;BME280;4899;42.644;23.366;2023-05-07T08:07:25;94533.09;;;18.72;86.92
9721;BME280;4899;42.644;23.366;2023-05-07T08:09:50;94522.25;;;18.70;88.51
9721;BME280;4899;42.644;23.366;2023-05-07T08:12:16;94530.47;;;18.72;88.18
9721;BME280;4899;42.644;23.366;2023-05-07T08:14:41;94529.19;;;18.86;85.77
9721;BME280;4899;42.644;23.366;2023-05-07T08:17:07;94521.91;;;18.98;84.48
9721;BME280;4899;42.644;23.366;2023-05-07T08:19:34;94521.84;;;19.21;83.56
9721;BME280;4899;42.644;23.366;2023-05-07T08:22:00;94521.53;;;19.26;81.11
9721;BME280;4899;42.644;23.366;2023-05-07T08:24:25;94517.06;;;19.57;79.08
9721;BME280;4899;42.644;23.366;2023-05-07T08:26:51;94525.81;;;19.72;78.01
9721;BME280;4899;42.644;23.366;2023-05-07T08:29:16;94526.63;;;19.79;75.46
9721;BME280;4899;42.644;23.366;2023-05-07T08:31:42;94529.34;;;19.86;74.18
9721;BME280;4899;42.644;23.366;2023-05-07T08:34:08;94525.81;;;20.09;71.70
9721;BME280;4899;42.644;23.366;2023-05-07T08:36:33;94490.63;;;19.95;69.83
9721;BME280;4899;42.644;23.366;2023-05-07T08:38:59;94522.16;;;20.17;67.17
9721;BME280;4899;42.644;23.366;2023-05-07T08:41:25;94516.00;;;19.98;66.34
9721;BME280;4899;42.644;23.366;2023-05-07T08:43:51;94525.09;;;20.12;64.23
9721;BME280;4899;42.644;23.366;2023-05-07T08:46:19;94520.00;;;20.29;63.84
9721;BME280;4899;42.644;23.366;2023-05-07T08:48:50;94516.59;;;20.63;62.09
9721;BME280;4899;42.644;23.366;2023-05-07T08:51:20;94520.13;;;20.92;61.45
9721;BME280;4899;42.644;23.366;2023-05-07T08:53:48;94515.28;;;20.94;60.89
9721;BME280;4899;42.644;23.366;2023-05-07T08:56:17;94515.25;;;20.86;59.02
9721;BME280;4899;42.644;23.366;2023-05-07T08:58:43;94510.06;;;20.97;58.71
9721;BME280;4899;42.644;23.366;2023-05-07T09:01:13;94506.31;;;20.95;57.45
9721;BME280;4899;42.644;23.366;2023-05-07T09:03:39;94499.63;;;21.04;56.31
9721;BME280;4899;42.644;23.366;2023-05-07T09:06:05;94503.75;;;21.05;55.56
9721;BME280;4899;42.644;23.366;2023-05-07T09:08:33;94495.22;;;21.15;54.78
9721;BME280;4899;42.644;23.366;2023-05-07T09:10:59;94509.53;;;21.32;53.18
9721;BME280;4899;42.644;23.366;2023-05-07T09:13:25;94492.75;;;21.47;52.46
9721;BME280;4899;42.644;23.366;2023-05-07T09:15:52;94499.19;;;21.68;52.80
9721;BME280;4899;42.644;23.366;2023-05-07T09:18:17;94493.94;;;21.68;52.57
9721;BME280;4899;42.644;23.366;2023-05-07T09:20:43;94488.72;;;21.78;52.18
9721;BME280;4899;42.644;23.366;2023-05-07T09:23:08;94498.88;;;21.98;51.24
9721;BME280;4899;42.644;23.366;2023-05-07T09:25:34;94494.81;;;22.18;50.78
9721;BME280;4899;42.644;23.366;2023-05-07T09:28:01;94490.31;;;22.15;50.73
9721;BME280;4899;42.644;23.366;2023-05-07T09:30:33;94489.19;;;22.20;50.40
9721;BME280;4899;42.644;23.366;2023-05-07T09:33:00;94477.59;;;22.14;50.99
9721;BME280;4899;42.644;23.366;2023-05-07T09:35:26;94484.34;;;22.15;50.31
9721;BME280;4899;42.644;23.366;2023-05-07T09:37:56;94489.56;;;22.25;48.83
9721;BME280;4899;42.644;23.366;2023-05-07T09:40:30;94482.06;;;22.49;49.50
9721;BME280;4899;42.644;23.366;2023-05-07T09:42:56;94481.34;;;22.59;49.18
9721;BME280;4899;42.644;23.366;2023-05-07T09:45:28;94482.06;;;22.81;47.98
9721;BME280;4899;42.644;23.366;2023-05-07T09:47:55;94480.06;;;23.24;47.80
9721;BME280;4899;42.644;23.366;2023-05-07T09:50:26;94484.16;;;23.39;47.24
9721;BME280;4899;42.644;23.366;2023-05-07T09:52:53;94478.41;;;23.69;47.06
9721;BME280;4899;42.644;23.366;2023-05-07T09:55:19;94467.47;;;23.78;46.48
9721;BME280;4899;42.644;23.366;2023-05-07T09:57:45;94478.56;;;24.07;45.82
9721;BME280;4899;42.644;23.366;2023-05-07T10:00:12;94466.63;;;24.47;45.59
9721;BME280;4899;42.644;23.366;2023-05-07T10:02:39;94479.94;;;24.70;45.02
9721;BME280;4899;42.644;23.366;2023-05-07T10:05:12;94478.66;;;24.85;44.27
9721;BME280;4899;42.644;23.366;2023-05-07T10:07:40;94475.63;;;25.28;43.82
9721;BME280;4899;42.644;23.366;2023-05-07T10:10:06;94472.97;;;25.28;43.08
9721;BME280;4899;42.644;23.366;2023-05-07T10:12:32;94468.81;;;25.27;43.32
9721;BME280;4899;42.644;23.366;2023-05-07T10:15:05;94474.06;;;25.31;42.45
9721;BME280;4899;42.644;23.366;2023-05-07T10:17:31;94467.72;;;25.28;42.45
9721;BME280;4899;42.644;23.366;2023-05-07T10:19:58;94462.38;;;24.98;42.40
9721;BME280;4899;42.644;23.366;2023-05-07T10:22:24;94466.56;;;24.92;42.65
9721;BME280;4899;42.644;23.366;2023-05-07T10:24:53;94465.16;;;24.83;42.37
9721;BME280;4899;42.644;23.366;2023-05-07T10:27:21;94458.41;;;24.82;42.57
9721;BME280;4899;42.644;23.366;2023-05-07T10:32:59;94444.06;;;24.87;41.97
9721;BME280;4899;42.644;23.366;2023-05-07T10:35:32;94437.78;;;24.74;41.46
9721;BME280;4899;42.644;23.366;2023-05-07T10:38:01;94438.13;;;24.79;40.96
9721;BME280;4899;42.644;23.366;2023-05-07T10:40:27;94436.00;;;24.67;40.68
9721;BME280;4899;42.644;23.366;2023-05-07T10:43:05;94434.94;;;24.95;39.43
9721;BME280;4899;42.644;23.366;2023-05-07T10:45:31;94443.63;;;25.30;39.97
9721;BME280;4899;42.644;23.366;2023-05-07T10:48:12;94426.44;;;25.75;38.66
9721;BME280;4899;42.644;23.366;2023-05-07T10:50:40;94439.28;;;26.24;39.29
9721;BME280;4899;42.644;23.366;2023-05-07T10:55:48;94443.63;;;26.81;38.12
9721;BME280;4899;42.644;23.366;2023-05-07T10:58:27;94423.81;;;27.68;35.42
9721;BME280;4899;42.644;23.366;2023-05-07T11:01:00;94418.22;;;28.76;34.90
9721;BME280;4899;42.644;23.366;2023-05-07T11:03:27;94421.34;;;29.42;35.37
9721;BME280;4899;42.644;23.366;2023-05-07T11:06:11;94390.38;;;30.50;31.27
9721;BME280;4899;42.644;23.366;2023-05-07T11:11:18;94432.13;;;30.84;33.47
9721;BME280;4899;42.644;23.366;2023-05-07T11:13:48;94425.91;;;31.00;33.31
9721;BME280;4899;42.644;23.366;2023-05-07T11:16:23;94397.59;;;30.84;30.68
9721;BME280;4899;42.644;23.366;2023-05-07T11:18:55;94422.13;;;30.53;31.98
9721;BME280;4899;42.644;23.366;2023-05-07T11:21:48;94376.75;;;30.60;29.39
9721;BME280;4899;42.644;23.366;2023-05-07T11:24:14;94412.53;;;31.34;31.93
9721;BME280;4899;42.644;23.366;2023-05-07T11:26:49;94379.53;;;31.63;29.15
9721;BME280;4899;42.644;23.366;2023-05-07T11:29:16;94392.91;;;32.85;30.11
9721;BME280;4899;42.644;23.366;2023-05-07T11:31:42;94375.03;;;33.28;30.02
9721;BME280;4899;42.644;23.366;2023-05-07T11:34:08;94357.00;;;33.56;28.90
9721;BME280;4899;42.644;23.366;2023-05-07T11:36:41;94359.59;;;33.74;27.86
9721;BME280;4899;42.644;23.366;2023-05-07T11:39:31;94323.00;;;33.99;25.47
9721;BME280;4899;42.644;23.366;2023-05-07T11:41:59;94360.03;;;34.06;28.41
9721;BME280;4899;42.644;23.366;2023-05-07T11:44:24;94367.06;;;33.61;28.66
9721;BME280;4899;42.644;23.366;2023-05-07T11:46:50;94375.78;;;33.28;28.67
9721;BME280;4899;42.644;23.366;2023-05-07T11:49:16;94373.53;;;32.48;29.14
9721;BME280;4899;42.644;23.366;2023-05-07T11:51:42;94377.19;;;32.78;28.60
9721;BME280;4899;42.644;23.366;2023-05-07T11:54:08;94365.31;;;33.58;28.26
9721;BME280;4899;42.644;23.366;2023-05-07T11:56:36;94361.09;;;34.47;27.80
9721;BME280;4899;42.644;23.366;2023-05-07T11:59:01;94349.94;;;34.63;28.30
9721;BME280;4899;42.644;23.366;2023-05-07T12:01:27;94349.41;;;35.68;27.50
9721;BME280;4899;42.644;23.366;2023-05-07T12:03:52;94341.59;;;36.20;27.23
9721;BME280;4899;42.644;23.366;2023-05-07T12:06:18;94326.91;;;36.61;26.21
9721;BME280;4899;42.644;23.366;2023-05-07T12:08:44;94311.75;;;36.79;25.82
9721;BME280;4899;42.644;23.366;2023-05-07T12:11:14;94299.50;;;37.04;25.45
9721;BME280;4899;42.644;23.366;2023-05-07T12:13:41;94292.31;;;37.21;25.29
9721;BME280;4899;42.644;23.366;2023-05-07T12:16:07;94293.47;;;37.46;25.00
9721;BME280;4899;42.644;23.366;2023-05-07T12:18:34;94288.56;;;37.44;24.96
9721;BME280;4899;42.644;23.366;2023-05-07T12:21:00;94279.16;;;38.20;24.39
9721;BME280;4899;42.644;23.366;2023-05-07T12:23:26;94276.47;;;38.36;24.44
9721;BME280;4899;42.644;23.366;2023-05-07T12:25:51;94265.22;;;38.38;24.13
9721;BME280;4899;42.644;23.366;2023-05-07T12:28:18;94264.97;;;38.41;23.50
9721;BME280;4899;42.644;23.366;2023-05-07T12:30:46;94268.31;;;38.08;23.84
9721;BME280;4899;42.644;23.366;2023-05-07T12:33:11;94271.53;;;37.53;23.95
9721;BME280;4899;42.644;23.366;2023-05-07T12:35:39;94270.84;;;36.89;24.15
9721;BME280;4899;42.644;23.366;2023-05-07T12:38:24;94255.97;;;36.62;22.20
9721;BME280;4899;42.644;23.366;2023-05-07T12:40:53;94270.34;;;36.33;24.69
9721;BME280;4899;42.644;23.366;2023-05-07T12:43:26;94255.22;;;36.56;22.64
9721;BME280;4899;42.644;23.366;2023-05-07T12:45:57;94244.47;;;36.82;22.99
9721;BME280;4899;42.644;23.366;2023-05-07T12:48:23;94251.63;;;37.28;23.69
9721;BME280;4899;42.644;23.366;2023-05-07T12:50:55;94209.38;;;37.23;22.10
9721;BME280;4899;42.644;23.366;2023-05-07T12:53:23;94231.38;;;37.86;23.23
9721;BME280;4899;42.644;23.366;2023-05-07T12:55:55;94210.25;;;38.50;21.81
9721;BME280;4899;42.644;23.366;2023-05-07T12:58:25;94203.22;;;39.61;21.86
9721;BME280;4899;42.644;23.366;2023-05-07T13:00:52;94183.53;;;40.24;21.56
9721;BME280;4899;42.644;23.366;2023-05-07T13:05:55;94189.38;;;39.29;21.87
9721;BME280;4899;42.644;23.366;2023-05-07T13:08:29;94185.19;;;39.33;20.96
9721;BME280;4899;42.644;23.366;2023-05-07T13:10:55;94197.50;;;39.01;22.32
9721;BME280;4899;42.644;23.366;2023-05-07T13:13:20;94179.97;;;40.05;20.91